Crawford, Indiana
Current Conditions -  °F | °C
As of 6:53 PM on Saturday 20 Dec 2014 (Local Time) from KBMG Reporting Station
Overcast Overcast  
Wind Chill: 32°   Ceiling: 1900
Heat Index: 32°   Visibility: 10mi
Dew Point: 26°   Wind: 0mph
Humidity: 79%   Direction: NA
Pressure: 30.28"   Gusts: NA
Location:  38.8737°N, 86.4563°W
Report Text: KBMG 202353Z 00000KT 10SM OVC019 00/M03 A3028 RMK AO2 SLP261 T00001033 10011 20000 51010
Loading
Personal Weather Stations






























Interactive Weather Map New forecast layout! Learn more

10-Day Weather Forecast

Advertisements
Track Severe Weather on mobile